Time;durP1;ratioP1;P1;durP2;ratioP2;P2;SDS_P1;SDS_P2;PMS_P1;PMS_P2;Temp;Humidity;BMP_temperature;BMP_pressure;BME280_temperature;BME280_humidity;BME280_pressure;Samples;Min_cycle;Max_cycle;Signal;HPM_P1;HPM_P2
2021/05/14 00:00:53;;;;;;;7.60;5.33;;;;;;;12.88;76.95;99824.41;1722403;81;21406;-72
2021/05/14 00:03:20;;;;;;;6.73;5.20;;;;;;;12.87;77.02;99823.38;1738159;81;21308;-73
2021/05/14 00:05:47;;;;;;;6.73;5.23;;;;;;;12.87;77.03;99825.51;1743513;81;21301;-73
2021/05/14 00:08:14;;;;;;;5.90;5.10;;;;;;;12.85;77.04;99829.02;1756912;81;21741;-72
2021/05/14 00:10:42;;;;;;;6.73;5.60;;;;;;;12.84;77.06;99828.77;1724296;81;21335;-73
2021/05/14 00:13:11;;;;;;;8.90;5.63;;;;;;;12.85;77.07;99829.02;1735291;81;21348;-73
2021/05/14 00:15:38;;;;;;;7.97;5.53;;;;;;;12.83;77.10;99827.19;1737539;81;21363;-72
2021/05/14 00:18:06;;;;;;;6.27;5.27;;;;;;;12.87;77.12;99829.53;1735052;82;22713;-73
2021/05/14 00:20:33;;;;;;;7.40;5.53;;;;;;;12.91;77.12;99830.53;1731392;82;21923;-73
2021/05/14 00:22:59;;;;;;;7.80;5.23;;;;;;;12.96;77.02;99822.16;1726177;82;21872;-72
2021/05/14 00:25:26;;;;;;;7.97;5.13;;;;;;;13.02;76.94;99823.69;1737798;82;21340;-72
2021/05/14 00:27:53;;;;;;;7.80;5.10;;;;;;;13.06;76.84;99822.01;1737305;82;21290;-72
2021/05/14 00:30:21;;;;;;;6.30;5.17;;;;;;;13.11;76.70;99821.95;1733637;81;21401;-73
2021/05/14 00:32:48;;;;;;;6.83;5.00;;;;;;;13.14;76.56;99813.32;1723632;82;21120;-73
2021/05/14 00:35:15;;;;;;;9.73;6.10;;;;;;;13.15;76.47;99812.22;1739866;82;21428;-72
2021/05/14 00:37:41;;;;;;;6.87;5.20;;;;;;;13.18;76.43;99814.88;1727522;81;21336;-73
2021/05/14 00:40:08;;;;;;;7.93;5.57;;;;;;;13.21;76.27;99814.29;1740702;81;21381;-73
2021/05/14 00:42:35;;;;;;;7.10;5.47;;;;;;;13.22;76.17;99814.53;1732698;82;21371;-73
2021/05/14 00:45:05;;;;;;;7.53;5.67;;;;;;;13.23;76.12;99816.14;1671869;85;21939;-72
2021/05/14 00:47:32;;;;;;;6.50;4.97;;;;;;;13.18;76.10;99808.96;1664640;85;22325;-72
2021/05/14 00:50:00;;;;;;;8.87;5.13;;;;;;;13.14;76.16;99806.07;1736712;81;21164;-72
2021/05/14 00:52:26;;;;;;;7.17;5.67;;;;;;;13.07;76.18;99806.20;1715955;81;21221;-73
2021/05/14 00:54:53;;;;;;;6.33;4.87;;;;;;;13.01;76.26;99806.81;1725081;82;21370;-73
2021/05/14 00:57:20;;;;;;;7.93;5.47;;;;;;;12.99;76.38;99812.20;1735606;82;21737;-72
2021/05/14 00:59:48;;;;;;;7.00;5.43;;;;;;;12.94;76.40;99800.23;1736209;81;21432;-73
2021/05/14 01:02:15;;;;;;;6.97;5.40;;;;;;;12.91;76.52;99803.73;1727966;82;21329;-74
2021/05/14 01:04:43;;;;;;;7.17;5.37;;;;;;;12.90;76.59;99802.70;1731328;82;21810;-72
2021/05/14 01:07:12;;;;;;;6.57;5.60;;;;;;;12.86;76.60;99793.63;1722154;82;21298;-73
2021/05/14 01:09:40;;;;;;;7.97;5.50;;;;;;;12.82;76.70;99790.73;1724900;82;21832;-72
2021/05/14 01:12:09;;;;;;;7.53;5.07;;;;;;;12.81;76.75;99789.14;1734140;81;21807;-73
2021/05/14 01:14:37;;;;;;;7.37;5.40;;;;;;;12.82;76.74;99790.73;1736535;82;21442;-72
2021/05/14 01:17:03;;;;;;;6.57;5.23;;;;;;;12.81;76.72;99788.36;1737728;82;21302;-73
2021/05/14 01:19:30;;;;;;;9.53;5.83;;;;;;;12.77;76.70;99792.16;1739090;82;21712;-73
2021/05/14 01:21:57;;;;;;;7.27;5.10;;;;;;;12.76;76.69;99783.84;1733240;81;21920;-73
2021/05/14 01:24:23;;;;;;;6.83;5.40;;;;;;;12.80;76.59;99790.76;1735968;81;21373;-72
2021/05/14 01:26:50;;;;;;;7.23;5.67;;;;;;;12.79;76.52;99788.63;1738380;81;21251;-73
2021/05/14 01:29:17;;;;;;;8.30;5.53;;;;;;;12.78;76.51;99790.27;1736191;82;21269;-73
2021/05/14 01:31:44;;;;;;;6.70;5.50;;;;;;;12.77;76.46;99788.14;1725731;81;21167;-73
2021/05/14 01:34:10;;;;;;;7.93;5.60;;;;;;;12.77;76.37;99784.66;1732075;82;21479;-73
2021/05/14 01:36:42;;;;;;;7.10;5.40;;;;;;;12.74;76.29;99780.68;1713574;82;21369;-73
2021/05/14 01:39:11;;;;;;;7.63;5.63;;;;;;;12.73;76.27;99784.42;1714458;82;21808;-74
2021/05/14 01:41:40;;;;;;;7.70;5.97;;;;;;;12.74;76.22;99783.36;1723940;81;21363;-73
2021/05/14 01:44:07;;;;;;;7.53;5.80;;;;;;;12.72;76.14;99785.52;1730878;81;21248;-74
2021/05/14 01:46:34;;;;;;;8.87;6.47;;;;;;;12.72;76.15;99783.39;1694705;82;21252;-72
2021/05/14 01:49:01;;;;;;;7.43;6.27;;;;;;;12.66;76.20;99781.31;1698816;84;21242;-72
2021/05/14 01:51:27;;;;;;;8.97;6.30;;;;;;;12.61;76.29;99782.73;1733988;81;21356;-72
2021/05/14 01:53:55;;;;;;;7.90;6.10;;;;;;;12.57;76.37;99783.86;1711316;82;21311;-72
2021/05/14 01:56:21;;;;;;;7.43;6.30;;;;;;;12.54;76.45;99783.09;1711539;81;21358;-73
2021/05/14 01:58:49;;;;;;;7.00;6.00;;;;;;;12.50;76.53;99780.72;1719836;82;21175;-73
2021/05/14 02:01:16;;;;;;;7.47;6.30;;;;;;;12.49;76.49;99779.69;1736362;81;21444;-73
2021/05/14 02:03:43;;;;;;;8.03;6.47;;;;;;;12.50;76.46;99780.72;1723290;81;21352;-72
2021/05/14 02:06:10;;;;;;;7.83;6.70;;;;;;;12.53;76.41;99782.03;1736682;81;21394;-74
2021/05/14 02:08:38;;;;;;;9.67;6.80;;;;;;;12.48;76.42;99777.55;1729791;82;21241;-73
2021/05/14 02:11:09;;;;;;;8.13;6.60;;;;;;;12.46;76.44;99782.94;1735886;82;21296;-73
2021/05/14 02:13:33;;;;;;;9.93;7.73;;;;;;;12.48;76.41;99776.76;1726314;81;21306;-73
2021/05/14 02:16:00;;;;;;;9.67;7.17;;;;;;;12.49;76.37;99779.69;1730675;81;21294;-72
2021/05/14 02:18:26;;;;;;;8.07;7.20;;;;;;;12.48;76.35;99782.91;1735392;81;21222;-72
2021/05/14 02:20:53;;;;;;;10.93;7.30;;;;;;;12.47;76.37;99779.16;1737378;81;21345;-72
2021/05/14 02:23:20;;;;;;;10.37;7.63;;;;;;;12.47;76.39;99773.29;1729049;81;21344;-73
2021/05/14 02:25:46;;;;;;;9.13;7.47;;;;;;;12.47;76.43;99775.14;1735253;82;21285;-73
2021/05/14 02:28:13;;;;;;;10.50;7.37;;;;;;;12.49;76.47;99774.33;1737529;82;21375;-73
2021/05/14 02:30:40;;;;;;;11.07;7.30;;;;;;;12.51;76.47;99777.53;1735689;81;21529;-73
2021/05/14 02:33:07;;;;;;;11.90;8.47;;;;;;;12.50;76.54;99774.57;1734048;81;21351;-73
2021/05/14 02:35:37;;;;;;;9.77;7.80;;;;;;;12.49;76.61;99778.34;1726108;81;21337;-73
2021/05/14 02:38:05;;;;;;;11.83;8.43;;;;;;;12.49;76.66;99779.13;1735970;81;21306;-73
2021/05/14 02:40:33;;;;;;;11.00;8.47;;;;;;;12.48;76.74;99774.08;1737279;82;21145;-72
2021/05/14 02:43:00;;;;;;;10.70;7.80;;;;;;;12.47;76.82;99765.77;1733701;81;21351;-72
2021/05/14 02:45:26;;;;;;;11.40;8.50;;;;;;;12.44;76.89;99773.86;1729980;81;21358;-72
2021/05/14 02:47:53;;;;;;;10.37;8.00;;;;;;;12.40;76.96;99772.30;1735913;82;21305;-72
2021/05/14 02:50:20;;;;;;;10.23;7.73;;;;;;;12.43;77.09;99761.53;1728282;82;21327;-74
2021/05/14 02:52:46;;;;;;;10.20;9.10;;;;;;;12.44;77.13;99767.95;1736266;81;21269;-72
2021/05/14 02:55:13;;;;;;;11.70;8.83;;;;;;;12.45;77.19;99768.75;1720817;82;22478;-72
2021/05/14 02:57:43;;;;;;;9.03;8.10;;;;;;;12.47;77.26;99769.79;1729270;82;21351;-72
2021/05/14 03:00:10;;;;;;;10.73;8.33;;;;;;;12.45;77.33;99763.39;1736779;82;21152;-73
2021/05/14 03:02:37;;;;;;;12.70;9.10;;;;;;;12.45;77.34;99766.07;1728464;82;21359;-72
2021/05/14 03:05:05;;;;;;;10.63;8.93;;;;;;;12.43;77.39;99765.01;1721618;81;21684;-72
2021/05/14 03:07:32;;;;;;;10.37;8.20;;;;;;;12.46;77.42;99765.53;1732933;81;21120;-73
2021/05/14 03:09:59;;;;;;;9.70;8.57;;;;;;;12.46;77.44;99766.87;1737355;82;21292;-73
2021/05/14 03:12:27;;;;;;;12.33;9.10;;;;;;;12.47;77.37;99761.23;1728299;82;21802;-73
2021/05/14 03:14:55;;;;;;;12.07;8.90;;;;;;;12.47;77.26;99762.58;1684926;84;21424;-72
2021/05/14 03:17:22;;;;;;;12.27;8.53;;;;;;;12.47;77.20;99761.75;1667801;85;21299;-73
2021/05/14 03:19:48;;;;;;;11.93;8.80;;;;;;;12.46;77.13;99764.19;1737102;82;21379;-73
2021/05/14 03:22:15;;;;;;;10.63;8.73;;;;;;;12.46;77.11;99760.96;1728372;82;21802;-73
2021/05/14 03:24:42;;;;;;;10.00;8.23;;;;;;;12.49;77.14;99764.41;1731393;82;21326;-72
2021/05/14 03:27:08;;;;;;;11.27;8.83;;;;;;;12.54;77.11;99767.03;1715654;82;21625;-73
2021/05/14 03:29:35;;;;;;;11.60;8.87;;;;;;;12.60;76.96;99762.38;1715651;82;21281;-72
2021/05/14 03:32:03;;;;;;;9.73;8.40;;;;;;;12.64;76.87;99766.88;1735203;82;21297;-72
2021/05/14 03:34:30;;;;;;;10.73;8.17;;;;;;;12.73;76.78;99760.86;1728158;81;21347;-72
2021/05/14 03:36:57;;;;;;;10.87;8.37;;;;;;;12.79;76.69;99757.02;1733725;81;21222;-74
2021/05/14 03:39:25;;;;;;;9.10;7.93;;;;;;;12.84;76.66;99761.77;1734950;81;21628;-72
2021/05/14 03:42:04;;;;;;;9.50;8.27;;;;;;;12.90;76.53;99761.95;1732322;81;21368;-72
2021/05/14 03:44:20;;;;;;;9.00;7.57;;;;;;;12.96;76.50;99766.66;1727959;81;21683;-73
2021/05/14 03:46:47;;;;;;;9.43;7.97;;;;;;;13.03;76.46;99767.11;1720116;82;21313;-72
2021/05/14 03:49:13;;;;;;;10.87;8.50;;;;;;;13.09;76.37;99771.28;1731246;82;21298;-72
2021/05/14 03:51:40;;;;;;;11.17;7.90;;;;;;;13.18;76.33;99760.70;1726277;82;21617;-72
2021/05/14 03:54:07;;;;;;;10.90;7.73;;;;;;;13.25;76.32;99755.77;1729691;81;21418;-72
2021/05/14 03:56:34;;;;;;;10.73;7.90;;;;;;;13.33;76.25;99757.80;1731648;81;21353;-72
2021/05/14 03:59:00;;;;;;;8.47;7.33;;;;;;;13.41;76.08;99757.66;1734915;82;21301;-73
2021/05/14 04:01:30;;;;;;;8.40;7.30;;;;;;;13.47;75.90;99759.71;1736494;81;21321;-72
2021/05/14 04:03:58;;;;;;;10.70;7.87;;;;;;;13.56;75.71;99755.26;1734886;81;21402;-71
2021/05/14 04:06:26;;;;;;;9.07;6.93;;;;;;;13.65;75.51;99758.83;1732698;81;21445;-72
2021/05/14 04:08:53;;;;;;;9.23;7.37;;;;;;;13.73;75.35;99761.39;1733128;81;21361;-73
2021/05/14 04:11:52;;;;;;;9.77;6.83;;;;;;;13.78;75.21;99759.38;1733760;82;21405;-73
2021/05/14 04:16:41;;;;;;;9.67;7.57;;;;;;;13.91;74.68;99743.59;1734225;81;21239;-72
2021/05/14 04:19:09;;;;;;;11.23;7.47;;;;;;;13.98;74.33;99739.40;1730534;82;21334;-73
2021/05/14 04:21:36;;;;;;;8.03;7.20;;;;;;;14.05;74.00;99737.13;1736844;82;21322;-72
2021/05/14 04:24:05;;;;;;;8.33;6.53;;;;;;;14.11;73.63;99733.77;1726970;81;21574;-73
2021/05/14 04:26:32;;;;;;;7.20;5.97;;;;;;;14.27;73.03;99732.36;1740706;81;21495;-73
2021/05/14 04:28:59;;;;;;;8.60;6.50;;;;;;;14.33;72.86;99738.42;1737241;82;22092;-73
2021/05/14 04:31:27;;;;;;;11.40;6.73;;;;;;;14.33;72.86;99738.42;1740096;82;21477;-74
2021/05/14 04:33:57;;;;;;;6.80;5.60;;;;;;;14.39;71.97;99736.43;1734386;81;21797;-73
2021/05/14 04:36:23;;;;;;;8.40;6.47;;;;;;;14.48;71.80;99735.97;1728935;82;21511;-73
2021/05/14 04:38:49;;;;;;;6.97;6.27;;;;;;;14.57;71.71;99738.19;1737260;82;21909;-71
2021/05/14 04:41:17;;;;;;;8.30;6.30;;;;;;;14.70;71.12;99725.25;1735188;82;22295;-73
2021/05/14 04:43:44;;;;;;;9.97;6.57;;;;;;;14.77;70.44;99732.37;1733088;81;21788;-73
2021/05/14 04:46:12;;;;;;;8.27;6.60;;;;;;;14.84;70.18;99728.44;1725434;81;21813;-73
2021/05/14 04:48:39;;;;;;;8.33;6.53;;;;;;;14.97;69.81;99730.27;1736835;82;21776;-72
2021/05/14 04:51:07;;;;;;;8.60;6.57;;;;;;;15.22;69.04;99718.87;1738273;81;21792;-73
2021/05/14 04:53:36;;;;;;;9.97;6.53;;;;;;;15.22;69.04;99718.87;1734541;81;21879;-73
2021/05/14 04:56:04;;;;;;;9.20;6.40;;;;;;;15.29;68.47;99729.77;1728480;82;21762;-73
2021/05/14 04:58:30;;;;;;;8.53;6.53;;;;;;;15.35;68.03;99725.84;1736092;82;21760;-71
2021/05/14 05:00:57;;;;;;;7.47;5.83;;;;;;;15.38;68.00;99723.32;1738384;81;21825;-73
2021/05/14 05:03:23;;;;;;;10.77;6.53;;;;;;;15.44;67.96;99718.61;1735504;82;21827;-72
2021/05/14 05:05:51;;;;;;;9.07;5.83;;;;;;;15.46;67.38;99714.52;1722488;82;21787;-73
2021/05/14 05:08:17;;;;;;;8.17;6.23;;;;;;;15.49;67.16;99715.77;1718146;81;21788;-73
2021/05/14 05:10:44;;;;;;;8.80;6.40;;;;;;;15.54;66.69;99715.64;1737476;81;21796;-73
2021/05/14 05:13:11;;;;;;;8.67;6.10;;;;;;;15.66;66.71;99708.31;1737056;81;21892;-73
2021/05/14 05:15:37;;;;;;;7.87;6.13;;;;;;;15.80;66.34;99702.88;1723359;81;21757;-72
2021/05/14 05:18:05;;;;;;;8.67;6.20;;;;;;;15.96;65.58;99701.33;1721627;82;21771;-72
2021/05/14 05:20:32;;;;;;;6.80;5.70;;;;;;;16.07;65.31;99705.30;1739862;81;21765;-72
2021/05/14 05:22:58;;;;;;;9.57;6.10;;;;;;;16.28;65.32;99701.44;1745957;81;21733;-73
2021/05/14 05:25:25;;;;;;;6.73;5.40;;;;;;;16.50;64.64;99696.47;1726436;82;21603;-73
2021/05/14 05:27:51;;;;;;;8.73;5.63;;;;;;;16.76;63.86;99696.48;1722383;82;20997;-72
2021/05/14 05:30:20;;;;;;;6.40;4.87;;;;;;;16.97;62.86;99700.65;1723434;82;21077;-72
2021/05/14 05:32:47;;;;;;;7.23;5.80;;;;;;;17.15;62.26;99702.77;1740246;81;21068;-73
2021/05/14 05:35:13;;;;;;;7.43;5.17;;;;;;;17.27;61.20;99690.73;1732753;81;21238;-71
2021/05/14 05:37:40;;;;;;;6.40;4.63;;;;;;;17.38;60.99;99692.53;1718091;82;21081;-73
2021/05/14 05:40:08;;;;;;;8.07;5.20;;;;;;;17.49;60.42;99692.97;1717682;81;21144;-73
2021/05/14 05:42:35;;;;;;;9.13;5.37;;;;;;;17.54;60.17;99686.84;1737968;82;21128;-73
2021/05/14 05:45:01;;;;;;;8.23;4.77;;;;;;;17.54;59.77;99696.28;1736540;81;21786;-72
2021/05/14 05:47:32;;;;;;;8.70;5.27;;;;;;;17.60;59.64;99694.17;1717723;82;20961;-73
2021/05/14 05:49:59;;;;;;;7.03;5.03;;;;;;;17.63;59.21;99692.17;1737474;82;21531;-72
2021/05/14 05:52:26;;;;;;;8.33;5.00;;;;;;;17.57;59.11;99692.94;1739778;81;21766;-70
2021/05/14 05:54:52;;;;;;;7.20;5.40;;;;;;;17.54;59.19;99685.48;1735777;81;21109;-73
2021/05/14 05:57:20;;;;;;;8.20;5.70;;;;;;;17.56;58.90;99683.23;1723303;82;20993;-73
2021/05/14 05:59:47;;;;;;;7.97;5.03;;;;;;;17.57;59.22;99680.79;1709085;84;21045;-72
2021/05/14 06:02:14;;;;;;;7.20;5.33;;;;;;;17.57;58.65;99683.48;1731152;82;21068;-73
2021/05/14 06:04:41;;;;;;;6.47;4.67;;;;;;;17.61;58.87;99670.12;1735290;82;22637;-73
2021/05/14 06:07:07;;;;;;;6.80;4.50;;;;;;;17.62;58.28;99663.59;1735638;82;21076;-69
2021/05/14 06:09:34;;;;;;;7.37;4.90;;;;;;;17.67;58.46;99662.61;1735224;81;21077;-69
2021/05/14 06:12:00;;;;;;;8.00;5.20;;;;;;;17.72;58.09;99658.39;1752638;81;20966;-70
2021/05/14 06:14:27;;;;;;;6.17;4.30;;;;;;;17.77;57.87;99662.30;1742873;81;21053;-69
2021/05/14 06:16:54;;;;;;;6.73;4.87;;;;;;;17.80;57.88;99671.06;1722860;81;21538;-69
2021/05/14 06:19:27;;;;;;;6.73;4.70;;;;;;;17.74;57.57;99676.42;1737633;81;21068;-69
2021/05/14 06:21:49;;;;;;;7.77;4.80;;;;;;;17.69;57.60;99675.24;1737040;82;21536;-72
2021/05/14 06:24:17;;;;;;;7.10;4.33;;;;;;;17.67;57.78;99674.77;1738153;82;21527;-74
2021/05/14 06:26:46;;;;;;;7.47;5.13;;;;;;;17.78;57.85;99671.97;1725977;82;20993;-75
2021/05/14 06:29:13;;;;;;;6.70;4.70;;;;;;;17.89;57.84;99666.41;1736945;82;21146;-74
2021/05/14 06:31:39;;;;;;;6.70;5.10;;;;;;;18.05;57.59;99663.93;1737741;82;21085;-73
2021/05/14 06:34:06;;;;;;;5.67;4.37;;;;;;;18.16;56.94;99661.62;1740183;81;21102;-73
2021/05/14 06:36:33;;;;;;;8.70;5.00;;;;;;;18.28;56.88;99657.64;1729828;81;21885;-73
2021/05/14 06:39:00;;;;;;;6.97;4.30;;;;;;;18.35;56.36;99660.59;1713748;82;21660;-74
2021/05/14 06:41:27;;;;;;;5.63;4.00;;;;;;;18.46;56.15;99651.55;1730776;81;21100;-73
2021/05/14 06:43:56;;;;;;;6.07;3.97;;;;;;;18.61;55.81;99646.07;1733305;81;21136;-72
2021/05/14 06:46:22;;;;;;;6.97;4.17;;;;;;;18.79;55.28;99642.65;1723595;81;21533;-74
2021/05/14 06:48:49;;;;;;;5.20;3.60;;;;;;;18.97;54.80;99646.77;1733049;81;21623;-74
2021/05/14 06:51:16;;;;;;;5.87;3.70;;;;;;;19.13;54.67;99648.27;1737421;81;21607;-73
2021/05/14 06:53:43;;;;;;;7.60;3.97;;;;;;;19.32;54.27;99643.10;1734944;82;22908;-72
2021/05/14 06:56:09;;;;;;;6.20;3.80;;;;;;;19.40;53.53;99635.42;1734693;82;21133;-74
2021/05/14 06:58:36;;;;;;;6.43;3.97;;;;;;;19.46;53.10;99634.64;1722595;81;21631;-73
2021/05/14 07:01:02;;;;;;;5.73;3.70;;;;;;;19.52;53.18;99630.58;1722044;81;21104;-72
2021/05/14 07:03:29;;;;;;;5.57;3.67;;;;;;;19.62;53.00;99630.12;1717600;81;21097;-71
2021/05/14 07:05:57;;;;;;;6.80;4.03;;;;;;;19.70;52.84;99627.08;1737179;82;21155;-71
2021/05/14 07:08:23;;;;;;;5.87;3.80;;;;;;;19.83;52.27;99627.86;1732577;82;21115;-71
2021/05/14 07:10:50;;;;;;;6.63;4.10;;;;;;;20.02;52.03;99625.91;1735984;81;21726;-70
2021/05/14 07:13:17;;;;;;;6.33;3.83;;;;;;;20.17;51.89;99627.91;1738012;82;21124;-71
2021/05/14 07:15:44;;;;;;;6.00;3.70;;;;;;;20.26;51.30;99625.82;1738584;82;21124;-71
2021/05/14 07:18:10;;;;;;;6.83;4.37;;;;;;;20.32;51.04;99631.23;1717567;82;21611;-71
2021/05/14 07:20:37;;;;;;;6.83;3.80;;;;;;;20.34;50.93;99624.91;1731899;82;21080;-71
2021/05/14 07:23:04;;;;;;;6.70;4.00;;;;;;;20.39;51.05;99629.28;1732206;82;21100;-70
2021/05/14 07:25:30;;;;;;;6.73;3.93;;;;;;;20.48;51.06;99630.50;1736316;81;21108;-69
2021/05/14 07:27:57;;;;;;;6.37;3.73;;;;;;;20.58;50.78;99621.89;1730175;81;21125;-71
2021/05/14 07:30:24;;;;;;;5.67;3.87;;;;;;;20.69;50.65;99619.45;1735989;82;21117;-71
2021/05/14 07:32:52;;;;;;;6.07;3.60;;;;;;;20.85;50.19;99625.13;1732052;81;21129;-73
2021/05/14 07:35:18;;;;;;;5.13;3.30;;;;;;;21.06;49.51;99619.47;1736181;81;21647;-72
2021/05/14 07:37:45;;;;;;;4.67;3.50;;;;;;;21.24;49.16;99623.17;1730827;81;21124;-70
2021/05/14 07:40:13;;;;;;;5.73;3.43;;;;;;;21.37;48.42;99613.04;1723403;81;21147;-71
2021/05/14 07:42:40;;;;;;;5.43;3.70;;;;;;;21.32;48.13;99611.33;1736911;82;21104;-70
2021/05/14 07:45:08;;;;;;;5.43;3.50;;;;;;;21.28;48.59;99609.89;1736008;82;21647;-71
2021/05/14 07:47:35;;;;;;;6.03;3.50;;;;;;;21.37;48.14;99615.18;1728823;81;21057;-70
2021/05/14 07:50:03;;;;;;;5.60;3.80;;;;;;;21.45;48.40;99612.83;1670708;84;21073;-68
2021/05/14 07:52:30;;;;;;;5.33;3.60;;;;;;;21.38;48.06;99614.61;1738486;81;21088;-71
2021/05/14 07:54:56;;;;;;;5.60;3.37;;;;;;;21.36;47.84;99607.40;1737354;81;21119;-71
2021/05/14 07:57:23;;;;;;;6.20;3.30;;;;;;;21.53;47.87;99611.09;1735291;81;21144;-71
2021/05/14 07:59:50;;;;;;;5.40;3.27;;;;;;;21.74;47.10;99612.91;1722783;82;21029;-72
2021/05/14 08:02:16;;;;;;;5.53;2.93;;;;;;;21.89;46.68;99611.88;1734218;82;21631;-77
2021/05/14 08:04:43;;;;;;;5.57;3.37;;;;;;;22.05;46.18;99611.83;1736276;82;21671;-76
2021/05/14 08:07:10;;;;;;;6.70;3.20;;;;;;;22.12;45.83;99607.89;1737326;81;21131;-75
2021/05/14 08:09:38;;;;;;;5.27;3.00;;;;;;;22.18;46.04;99607.86;1726785;81;21481;-75
2021/05/14 08:12:08;;;;;;;4.53;2.97;;;;;;;22.21;45.25;99607.11;1730085;81;21057;-76
2021/05/14 08:14:36;;;;;;;4.90;2.90;;;;;;;22.22;44.57;99612.79;1737452;82;21622;-75
2021/05/14 08:17:03;;;;;;;6.23;3.20;;;;;;;22.16;44.56;99606.05;1737338;82;21394;-75
2021/05/14 08:19:30;;;;;;;5.77;3.23;;;;;;;21.96;44.39;99610.09;1731670;82;21053;-75
2021/05/14 08:21:57;;;;;;;5.50;3.33;;;;;;;21.75;45.30;99613.15;1734787;82;21763;-78
2021/05/14 08:24:24;;;;;;;4.40;3.20;;;;;;;21.71;46.33;99619.63;1718733;82;21164;-76
2021/05/14 08:26:50;;;;;;;5.00;3.07;;;;;;;21.71;46.36;99616.34;1737471;81;21092;-73
2021/05/14 08:29:17;;;;;;;5.53;2.87;;;;;;;21.77;46.00;99623.66;1731633;82;21069;-73
2021/05/14 08:31:43;;;;;;;7.13;2.80;;;;;;;21.81;45.96;99631.88;1730781;81;21623;-73
2021/05/14 08:34:11;;;;;;;6.37;3.60;;;;;;;21.86;46.10;99624.25;1731571;81;21127;-75
2021/05/14 08:36:40;;;;;;;4.50;3.07;;;;;;;21.94;45.80;99625.17;1739281;81;21118;-75
2021/05/14 08:39:08;;;;;;;5.57;2.83;;;;;;;21.91;45.54;99629.39;1728815;82;21599;-75
2021/05/14 08:41:36;;;;;;;5.17;2.73;;;;;;;21.96;45.31;99639.22;1736129;81;21040;-72
2021/05/14 08:44:08;;;;;;;5.27;2.77;;;;;;;22.03;44.37;99637.22;1718787;82;21038;-74
2021/05/14 08:46:36;;;;;;;4.93;2.40;;;;;;;22.15;43.69;99636.55;1737399;81;21056;-75
2021/05/14 08:49:03;;;;;;;5.83;2.80;;;;;;;22.33;43.21;99636.91;1732167;81;21132;-74
2021/05/14 08:51:30;;;;;;;4.10;2.47;;;;;;;22.42;42.65;99629.31;1705391;82;21682;-75
2021/05/14 08:54:01;;;;;;;4.57;2.67;;;;;;;22.53;42.48;99625.42;1737073;82;21044;-74
2021/05/14 08:56:28;;;;;;;4.57;2.47;;;;;;;22.59;42.21;99629.44;1736771;82;21080;-75
2021/05/14 08:58:55;;;;;;;4.57;2.53;;;;;;;22.65;41.95;99630.72;1732672;81;21152;-74
2021/05/14 09:01:23;;;;;;;4.13;2.40;;;;;;;22.68;42.15;99631.36;1727712;81;21048;-75
2021/05/14 09:04:01;;;;;;;5.07;2.30;;;;;;;22.67;42.17;99629.80;1735733;82;21139;-73
2021/05/14 09:06:40;;;;;;;5.30;2.30;;;;;;;22.66;41.65;99628.20;1737130;81;21674;-75
2021/05/14 09:09:12;;;;;;;5.40;2.30;;;;;;;22.61;41.29;99632.59;1735371;81;21109;-73
2021/05/14 09:11:46;;;;;;;3.93;2.47;;;;;;;22.56;41.29;99623.35;1725075;82;21100;-73
2021/05/14 09:14:44;;;;;;;5.17;2.40;;;;;;;22.54;41.54;99623.48;1708280;84;21152;-74
2021/05/14 09:17:23;;;;;;;4.03;2.50;;;;;;;22.49;41.39;99623.22;1729435;82;21208;-76
2021/05/14 09:19:49;;;;;;;5.10;2.23;;;;;;;22.30;42.00;99628.67;1733246;81;21175;-74
2021/05/14 09:22:21;;;;;;;3.97;2.00;;;;;;;22.05;42.38;99622.70;1735173;82;21316;-74
2021/05/14 09:24:56;;;;;;;4.03;2.08;;;;;;;21.84;41.10;99627.09;1737168;82;21655;-75
2021/05/14 09:27:32;;;;;;;4.40;2.73;;;;;;;21.66;40.77;99624.78;1723316;82;21140;-77
2021/05/14 09:30:01;;;;;;;4.83;2.23;;;;;;;21.45;41.23;99614.19;1729379;81;21100;-76
2021/05/14 09:32:33;;;;;;;4.07;2.60;;;;;;;21.19;41.58;99617.45;1735571;81;21099;-75
2021/05/14 09:35:01;;;;;;;4.60;2.27;;;;;;;21.00;42.12;99608.64;1738192;82;21044;-74
2021/05/14 09:37:28;;;;;;;4.73;2.63;;;;;;;20.93;42.86;99621.26;1739958;81;21659;-75
2021/05/14 09:40:21;;;;;;;4.60;2.63;;;;;;;20.80;43.35;99613.75;1733486;81;21096;-75
2021/05/14 09:42:50;;;;;;;6.07;2.63;;;;;;;20.57;43.79;99610.25;1741430;81;21691;-75
2021/05/14 09:45:23;;;;;;;5.10;2.70;;;;;;;20.38;46.25;99608.73;1745233;81;21108;-73
2021/05/14 09:48:21;;;;;;;5.30;3.10;;;;;;;20.09;48.03;99610.63;1739820;82;21590;-72
2021/05/14 09:50:46;;;;;;;8.13;3.30;;;;;;;19.72;50.29;99619.41;1731748;81;21674;-72
2021/05/14 09:53:18;;;;;;;5.83;3.27;;;;;;;19.24;52.59;99634.51;1731633;81;21140;-72
2021/05/14 09:55:55;;;;;;;5.10;3.13;;;;;;;18.95;54.25;99640.35;1742974;81;21073;-72
2021/05/14 09:58:23;;;;;;;6.90;3.27;;;;;;;18.83;55.32;99641.67;1736520;82;21084;-72
2021/05/14 10:00:49;;;;;;;6.23;3.53;;;;;;;18.80;55.82;99647.74;1733398;81;21084;-73
2021/05/14 10:03:18;;;;;;;4.93;3.27;;;;;;;18.84;56.02;99643.23;1736062;81;21085;-74
2021/05/14 10:05:46;;;;;;;4.80;3.40;;;;;;;18.92;56.26;99642.37;1716855;81;21553;-73
2021/05/14 10:08:15;;;;;;;6.20;3.50;;;;;;;19.01;56.11;99638.77;1736174;82;21100;-74
2021/05/14 10:10:42;;;;;;;4.90;3.33;;;;;;;19.06;55.54;99644.77;1730205;81;21022;-75
2021/05/14 10:13:10;;;;;;;6.07;3.83;;;;;;;19.09;55.27;99648.16;1725408;82;21638;-75
2021/05/14 10:15:39;;;;;;;5.67;3.60;;;;;;;19.08;54.94;99649.26;1713941;82;21078;-74
2021/05/14 10:18:09;;;;;;;7.10;3.97;;;;;;;19.04;54.80;99644.86;1735003;82;21579;-75
2021/05/14 10:20:37;;;;;;;6.10;3.70;;;;;;;18.97;54.53;99642.14;1734557;81;21237;-76
2021/05/14 10:23:04;;;;;;;6.03;3.20;;;;;;;18.92;54.29;99639.67;1727840;81;21571;-76
2021/05/14 10:25:44;;;;;;;4.40;3.20;;;;;;;18.90;54.10;99635.70;1735733;82;21089;-76
2021/05/14 10:28:21;;;;;;;4.80;3.20;;;;;;;18.96;53.79;99634.38;1703038;82;21073;-75
2021/05/14 10:31:09;;;;;;;6.13;3.40;;;;;;;19.13;54.03;99636.09;1740833;81;21131;-76
2021/05/14 10:33:56;;;;;;;6.33;3.47;;;;;;;19.46;54.69;99633.28;1731134;81;21623;-75
2021/05/14 10:36:32;;;;;;;5.90;3.57;;;;;;;19.97;54.43;99630.20;1738896;82;21056;-74
2021/05/14 10:39:16;;;;;;;4.33;3.00;;;;;;;20.49;52.87;99628.78;1726867;82;21072;-75
2021/05/14 10:42:02;;;;;;;4.97;3.50;;;;;;;20.92;51.42;99630.52;1731097;81;21131;-72
2021/05/14 10:44:48;;;;;;;4.67;3.40;;;;;;;21.25;49.83;99632.31;1734740;81;21107;-72
2021/05/14 10:47:29;;;;;;;5.10;3.70;;;;;;;21.50;48.74;99626.16;1724907;82;21061;-75
2021/05/14 10:52:30;;;;;;;4.58;3.20;;;;;;;21.81;47.24;99638.68;1731584;82;20249;-75
2021/05/14 10:54:56;;;;;;;5.27;3.47;;;;;;;21.87;47.66;99629.89;1718338;82;21527;-78
2021/05/14 10:57:48;;;;;;;7.00;3.57;;;;;;;21.93;46.73;99633.13;1724890;82;21148;-76
2021/05/14 11:00:32;;;;;;;4.97;3.30;;;;;;;21.96;46.99;99625.05;1738590;82;21092;-77
2021/05/14 11:03:17;;;;;;;7.10;4.00;;;;;;;22.06;46.57;99631.07;1725935;81;21092;-74
2021/05/14 11:05:48;;;;;;;6.67;3.70;;;;;;;22.13;46.19;99625.20;1736849;82;21160;-75
2021/05/14 11:08:38;;;;;;;7.75;3.98;;;;;;;22.18;45.34;99626.31;1736796;81;21568;-74
2021/05/14 11:13:48;;;;;;;5.77;3.57;;;;;;;22.22;45.50;99618.23;1709007;82;21045;-70
2021/05/14 11:16:39;;;;;;;5.20;3.00;;;;;;;22.26;46.03;99616.36;1741010;81;21120;-75
2021/05/14 11:19:17;;;;;;;4.17;2.87;;;;;;;22.31;45.86;99612.55;1727759;81;21121;-75
2021/05/14 11:22:12;;;;;;;5.57;3.30;;;;;;;22.30;45.28;99610.98;1735544;81;21816;-74
2021/05/14 11:24:50;;;;;;;5.70;3.30;;;;;;;22.36;45.03;99610.34;1728923;81;21626;-75
2021/05/14 11:27:33;;;;;;;4.57;3.00;;;;;;;22.44;44.75;99601.73;1727681;82;21065;-75
2021/05/14 11:30:06;;;;;;;4.67;3.20;;;;;;;22.53;44.21;99602.30;1735152;82;21088;-74
2021/05/14 11:32:41;;;;;;;6.87;3.00;;;;;;;22.62;44.98;99603.44;1735296;81;21140;-74
2021/05/14 11:35:20;;;;;;;4.87;2.60;;;;;;;22.68;44.83;99595.98;1730928;81;21111;-74
2021/05/14 11:37:57;;;;;;;4.63;2.33;;;;;;;22.78;43.98;99591.09;1725017;82;21086;-74
2021/05/14 11:40:36;;;;;;;5.10;2.37;;;;;;;22.78;41.21;99585.64;1738452;81;21064;-73
2021/05/14 11:43:09;;;;;;;3.77;2.40;;;;;;;22.74;41.84;99580.69;1732119;81;21100;-77
2021/05/14 11:45:38;;;;;;;4.63;2.53;;;;;;;22.86;42.42;99581.30;1722519;82;21065;-76
2021/05/14 11:48:13;;;;;;;3.60;2.60;;;;;;;23.03;41.79;99582.77;1719981;81;21083;-73